createdAt,value
2023-03-30T00:02:23.812Z,1001.09
2023-03-30T00:04:57.339Z,1001.11
2023-03-30T00:07:30.142Z,1001.11
2023-03-30T00:10:03.157Z,1001.07
2023-03-30T00:12:36.176Z,1001.04
2023-03-30T00:15:09.165Z,1001.01
2023-03-30T00:17:42.167Z,1001.00
2023-03-30T00:20:15.533Z,1000.97
2023-03-30T00:22:49.118Z,1000.94
2023-03-30T00:25:22.109Z,1000.91
2023-03-30T00:27:55.143Z,1000.90
2023-03-30T00:30:28.222Z,1000.88
2023-03-30T00:33:01.242Z,1000.87
2023-03-30T00:35:34.430Z,1000.85
2023-03-30T00:38:08.320Z,1000.82
2023-03-30T00:40:42.198Z,1000.80
2023-03-30T00:43:14.902Z,1000.80
2023-03-30T00:45:48.149Z,1000.81
2023-03-30T00:48:20.893Z,1000.80
2023-03-30T00:50:54.205Z,1000.79
2023-03-30T00:53:27.324Z,1000.76
2023-03-30T00:56:00.215Z,1000.74
2023-03-30T00:58:33.320Z,1000.71
2023-03-30T01:01:06.315Z,1000.68
2023-03-30T01:03:39.422Z,1000.64
2023-03-30T01:06:12.028Z,1000.63
2023-03-30T01:08:45.088Z,1000.64
2023-03-30T01:11:18.250Z,1000.65
2023-03-30T01:13:51.209Z,1000.63
2023-03-30T01:16:23.973Z,1000.60
2023-03-30T01:19:03.212Z,1000.56
2023-03-30T01:21:36.358Z,1000.53
2023-03-30T01:24:09.262Z,1000.54
2023-03-30T01:26:42.266Z,1000.56
2023-03-30T01:29:15.400Z,1000.59
2023-03-30T01:31:49.424Z,1000.62
2023-03-30T01:34:22.234Z,1000.64
2023-03-30T01:36:55.286Z,1000.67
2023-03-30T01:39:28.336Z,1000.68
2023-03-30T01:42:01.331Z,1000.67
2023-03-30T01:44:34.091Z,1000.67
2023-03-30T01:47:07.257Z,1000.66
2023-03-30T01:49:40.329Z,1000.64
2023-03-30T01:52:13.274Z,1000.59
2023-03-30T01:54:46.371Z,1000.58
2023-03-30T01:57:19.448Z,1000.58
2023-03-30T01:59:53.280Z,1000.59
2023-03-30T02:02:26.221Z,1000.61
2023-03-30T02:04:59.422Z,1000.64
2023-03-30T02:07:46.345Z,1000.68
2023-03-30T02:10:19.039Z,1000.73
2023-03-30T02:12:52.300Z,1000.76
2023-03-30T02:15:25.466Z,1000.77
2023-03-30T02:17:59.086Z,1000.76
2023-03-30T02:20:32.451Z,1000.77
2023-03-30T02:23:06.407Z,1000.75
2023-03-30T02:25:40.164Z,1000.72
2023-03-30T02:28:13.193Z,1000.66
2023-03-30T02:30:46.528Z,1000.58
2023-03-30T02:33:20.234Z,1000.54
2023-03-30T02:35:53.378Z,1000.51
2023-03-30T02:38:26.228Z,1000.53
2023-03-30T02:40:59.338Z,1000.54
2023-03-30T02:43:32.430Z,1000.56
2023-03-30T02:46:09.327Z,1000.56
2023-03-30T02:48:42.492Z,1000.55
2023-03-30T02:51:15.162Z,1000.55
2023-03-30T02:53:48.652Z,1000.57
2023-03-30T02:56:22.097Z,1000.57
2023-03-30T02:58:55.084Z,1000.54
2023-03-30T03:01:28.461Z,1000.53
2023-03-30T03:04:01.383Z,1000.54
2023-03-30T03:06:34.550Z,1000.58
2023-03-30T03:09:08.568Z,1000.66
2023-03-30T03:11:42.570Z,1000.71
2023-03-30T03:14:16.465Z,1000.76
2023-03-30T03:16:49.356Z,1000.78
2023-03-30T03:19:22.425Z,1000.79
2023-03-30T03:21:55.120Z,1000.77
2023-03-30T03:24:28.474Z,1000.75
2023-03-30T03:27:01.327Z,1000.74
2023-03-30T03:29:34.153Z,1000.76
2023-03-30T03:32:07.492Z,1000.75
2023-03-30T03:34:40.253Z,1000.71
2023-03-30T03:37:17.042Z,1000.69
2023-03-30T03:39:50.269Z,1000.66
2023-03-30T03:42:23.162Z,1000.59
2023-03-30T03:44:56.147Z,1000.49
2023-03-30T03:47:29.498Z,1000.36
2023-03-30T03:50:02.178Z,1000.25
2023-03-30T03:52:35.384Z,1000.17
2023-03-30T03:55:08.598Z,1000.05
2023-03-30T03:57:42.342Z,999.97
2023-03-30T04:00:17.482Z,999.90
2023-03-30T04:02:50.261Z,999.83
2023-03-30T04:05:23.186Z,999.79
2023-03-30T04:07:56.196Z,999.74
2023-03-30T04:10:29.364Z,999.69
2023-03-30T04:13:02.242Z,999.61
2023-03-30T04:15:35.205Z,999.53
2023-03-30T04:18:08.605Z,999.50
2023-03-30T04:20:41.513Z,999.49
2023-03-30T04:23:14.439Z,999.47
2023-03-30T04:25:47.718Z,999.43
2023-03-30T04:28:21.269Z,999.38
2023-03-30T04:30:54.434Z,999.32
2023-03-30T04:33:27.378Z,999.28
2023-03-30T04:36:00.521Z,999.27
2023-03-30T04:38:33.398Z,999.26
2023-03-30T04:41:06.550Z,999.29
2023-03-30T04:43:39.552Z,999.32
2023-03-30T04:46:12.495Z,999.35
2023-03-30T04:48:45.333Z,999.39
2023-03-30T04:51:18.243Z,999.43
2023-03-30T04:53:51.467Z,999.47
2023-03-30T04:56:24.324Z,999.50
2023-03-30T04:58:57.643Z,999.53
2023-03-30T05:01:30.370Z,999.59
2023-03-30T05:04:03.279Z,999.63
2023-03-30T05:06:36.613Z,999.66
2023-03-30T05:11:59.301Z,999.69
2023-03-30T05:14:32.505Z,999.72
2023-03-30T05:17:05.736Z,999.75
2023-03-30T05:19:38.447Z,999.78
2023-03-30T05:22:11.729Z,999.81
2023-03-30T05:24:44.675Z,999.82
2023-03-30T05:27:17.339Z,999.84
2023-03-30T05:29:50.541Z,999.88
2023-03-30T05:32:23.630Z,999.93
2023-03-30T05:34:56.794Z,999.99
2023-03-30T05:37:30.457Z,1000.07
2023-03-30T05:40:03.660Z,1000.14
2023-03-30T05:42:36.748Z,1000.22
2023-03-30T05:45:09.751Z,1000.26
2023-03-30T05:47:42.777Z,1000.32
2023-03-30T05:50:15.605Z,1000.41
2023-03-30T05:53:02.571Z,1000.53
2023-03-30T05:55:35.472Z,1000.58
2023-03-30T05:58:08.640Z,1000.70
2023-03-30T06:00:41.651Z,1000.78
2023-03-30T06:03:14.624Z,1000.84
2023-03-30T06:05:47.352Z,1000.93
2023-03-30T06:08:22.622Z,1000.98
2023-03-30T06:10:53.759Z,1001.01
2023-03-30T06:13:26.766Z,1001.03
2023-03-30T06:16:02.346Z,1001.01
2023-03-30T06:18:32.633Z,1000.98
2023-03-30T06:21:05.850Z,1000.93
2023-03-30T06:23:38.674Z,1000.92
2023-03-30T06:26:11.856Z,1000.91
2023-03-30T06:28:45.797Z,1000.92
2023-03-30T06:31:18.773Z,1000.94
2023-03-30T06:33:51.765Z,1000.96
2023-03-30T06:36:44.606Z,1000.94
2023-03-30T06:38:57.708Z,1000.89
2023-03-30T06:41:30.759Z,1000.83
2023-03-30T06:44:03.703Z,1000.78
2023-03-30T06:46:36.776Z,1000.75
2023-03-30T06:49:09.729Z,1000.74
2023-03-30T06:51:42.828Z,1000.70
2023-03-30T06:54:15.700Z,1000.66
2023-03-30T06:56:48.797Z,1000.67
2023-03-30T06:59:21.782Z,1000.68
2023-03-30T07:01:57.864Z,1000.68
2023-03-30T07:04:31.042Z,1000.63
2023-03-30T07:07:04.694Z,1000.61
2023-03-30T07:09:37.818Z,1000.59
2023-03-30T07:12:10.774Z,1000.58
2023-03-30T07:14:43.932Z,1000.56
2023-03-30T07:17:18.167Z,1000.53
2023-03-30T07:19:50.880Z,1000.50
2023-03-30T07:22:23.767Z,1000.49
2023-03-30T07:24:56.616Z,1000.47
2023-03-30T07:27:29.810Z,1000.47
2023-03-30T07:30:13.835Z,1000.46
2023-03-30T07:32:35.800Z,1000.45
2023-03-30T07:35:08.759Z,1000.40
2023-03-30T07:37:41.758Z,1000.27
2023-03-30T07:40:14.786Z,1000.18
2023-03-30T07:42:47.981Z,1000.14
2023-03-30T07:45:22.027Z,1000.14
2023-03-30T07:47:55.892Z,1000.14
2023-03-30T07:50:28.843Z,1000.12
2023-03-30T07:53:01.832Z,1000.11
2023-03-30T07:55:35.004Z,1000.17
2023-03-30T07:58:08.850Z,1000.23
2023-03-30T08:00:41.962Z,1000.25
2023-03-30T08:03:20.412Z,1000.27
2023-03-30T08:05:53.645Z,1000.29
2023-03-30T08:08:26.890Z,1000.26
2023-03-30T08:10:59.917Z,1000.25
2023-03-30T08:13:33.000Z,1000.24
2023-03-30T08:16:06.087Z,1000.23
2023-03-30T08:18:38.776Z,1000.23
2023-03-30T08:21:11.830Z,1000.26
2023-03-30T08:23:44.988Z,1000.29
2023-03-30T08:26:17.783Z,1000.33
2023-03-30T08:28:50.978Z,1000.37
2023-03-30T08:31:23.982Z,1000.40
2023-03-30T08:33:56.976Z,1000.42
2023-03-30T08:36:30.046Z,1000.45
2023-03-30T08:39:04.058Z,1000.48
2023-03-30T08:41:37.924Z,1000.52
2023-03-30T08:44:10.985Z,1000.55
2023-03-30T08:46:43.969Z,1000.54
2023-03-30T08:49:16.890Z,1000.56
2023-03-30T08:51:49.935Z,1000.61
2023-03-30T08:54:22.974Z,1000.66
2023-03-30T08:56:56.021Z,1000.70
2023-03-30T08:59:29.117Z,1000.71
2023-03-30T09:02:02.961Z,1000.67
2023-03-30T09:04:35.998Z,1000.65
2023-03-30T09:07:09.057Z,1000.71
2023-03-30T09:09:43.114Z,1000.71
2023-03-30T09:12:16.922Z,1000.71
2023-03-30T09:14:49.942Z,1000.71
2023-03-30T09:17:23.005Z,1000.69
2023-03-30T09:19:56.111Z,1000.60
2023-03-30T09:22:29.977Z,1000.56
2023-03-30T09:25:03.044Z,1000.62
2023-03-30T09:27:35.996Z,1000.65
2023-03-30T09:30:09.047Z,1000.71
2023-03-30T09:32:42.136Z,1000.76
2023-03-30T09:35:14.947Z,1000.77
2023-03-30T09:37:48.015Z,1000.76
2023-03-30T09:40:20.994Z,1000.77
2023-03-30T09:42:54.212Z,1000.83
2023-03-30T09:45:28.047Z,1000.89
2023-03-30T09:48:01.084Z,1000.93
2023-03-30T09:50:34.054Z,1000.93
2023-03-30T09:53:07.261Z,1000.93
2023-03-30T09:55:40.989Z,1000.93
2023-03-30T09:58:28.030Z,1000.93
2023-03-30T10:01:01.138Z,1000.96
2023-03-30T10:03:34.259Z,1000.97
2023-03-30T10:06:07.247Z,1000.99
2023-03-30T10:08:40.124Z,1001.00
2023-03-30T10:11:12.916Z,1001.02
2023-03-30T10:13:46.052Z,1001.02
2023-03-30T10:16:19.073Z,1001.01
2023-03-30T10:18:52.391Z,1001.00
2023-03-30T10:21:26.198Z,1000.96
2023-03-30T10:24:00.015Z,1000.93
2023-03-30T10:26:33.097Z,1000.94
2023-03-30T10:29:06.242Z,1000.95
2023-03-30T10:31:40.185Z,1000.95
2023-03-30T10:34:13.160Z,1000.94
2023-03-30T10:36:48.650Z,1000.92
2023-03-30T10:39:19.786Z,1000.91
2023-03-30T10:41:53.188Z,1000.89
2023-03-30T10:44:26.082Z,1000.85
2023-03-30T10:46:59.138Z,1000.83
2023-03-30T10:49:32.168Z,1000.82
2023-03-30T10:52:05.226Z,1000.83
2023-03-30T10:54:39.086Z,1000.83
2023-03-30T10:57:12.166Z,1000.83
2023-03-30T10:59:45.081Z,1000.86
2023-03-30T11:02:18.083Z,1000.86
2023-03-30T11:04:51.161Z,1000.88
2023-03-30T11:07:24.092Z,1000.88
2023-03-30T11:09:57.092Z,1000.89
2023-03-30T11:12:30.163Z,1000.90
2023-03-30T11:15:03.235Z,1000.89
2023-03-30T11:17:36.211Z,1000.92
2023-03-30T11:20:09.189Z,1000.94
2023-03-30T11:22:42.194Z,1000.96
2023-03-30T11:25:15.205Z,1000.97
2023-03-30T11:27:48.159Z,1000.98
2023-03-30T11:30:21.126Z,1000.97
2023-03-30T11:32:54.400Z,1000.98
2023-03-30T11:35:28.312Z,1000.97
2023-03-30T11:38:02.186Z,1000.98
2023-03-30T11:40:35.395Z,1000.99
2023-03-30T11:43:09.198Z,1000.98
2023-03-30T11:45:42.309Z,1001.00
2023-03-30T11:48:16.130Z,1001.00
2023-03-30T11:50:49.233Z,1001.01
2023-03-30T11:53:21.847Z,1001.01
2023-03-30T11:55:55.222Z,1001.00
2023-03-30T11:58:27.964Z,1000.98
2023-03-30T12:01:01.231Z,1000.96
2023-03-30T12:03:34.348Z,1000.91
2023-03-30T12:06:07.163Z,1000.89
2023-03-30T12:08:40.125Z,1000.87
2023-03-30T12:11:13.245Z,1000.84
2023-03-30T12:13:51.301Z,1000.81
2023-03-30T12:16:18.985Z,1000.77
2023-03-30T12:18:52.247Z,1000.73
2023-03-30T12:21:25.317Z,1000.72
2023-03-30T12:23:58.135Z,1000.72
2023-03-30T12:26:31.171Z,1000.70
2023-03-30T12:29:26.260Z,1000.70
2023-03-30T12:31:37.335Z,1000.70
2023-03-30T12:34:10.334Z,1000.66
2023-03-30T12:36:43.482Z,1000.62
2023-03-30T12:39:17.235Z,1000.61
2023-03-30T12:41:50.305Z,1000.59
2023-03-30T12:44:23.247Z,1000.58
2023-03-30T12:46:56.383Z,1000.53
2023-03-30T12:49:30.334Z,1000.50
2023-03-30T12:52:03.426Z,1000.45
2023-03-30T12:54:37.298Z,1000.40
2023-03-30T12:57:10.572Z,1000.36
2023-03-30T12:59:44.439Z,1000.30
2023-03-30T13:02:18.228Z,1000.27
2023-03-30T13:04:51.395Z,1000.22
2023-03-30T13:07:23.996Z,1000.19
2023-03-30T13:09:57.203Z,1000.16
2023-03-30T13:12:29.995Z,1000.14
2023-03-30T13:15:03.140Z,1000.12
2023-03-30T13:17:36.043Z,1000.11
2023-03-30T13:20:22.188Z,1000.09
2023-03-30T13:22:42.316Z,1000.07
2023-03-30T13:25:15.016Z,1000.05
2023-03-30T13:27:48.147Z,1000.00
2023-03-30T13:30:21.029Z,999.98
2023-03-30T13:32:54.258Z,999.94
2023-03-30T13:35:27.188Z,999.93
2023-03-30T13:38:00.223Z,999.89
2023-03-30T13:40:41.417Z,999.88
2023-03-30T13:43:06.143Z,999.86
2023-03-30T13:45:39.157Z,999.87
2023-03-30T13:48:12.250Z,999.86
2023-03-30T13:50:45.231Z,999.86
2023-03-30T13:53:18.082Z,999.86
2023-03-30T13:55:51.216Z,999.87
2023-03-30T13:58:24.060Z,999.89
2023-03-30T14:00:57.417Z,999.90
2023-03-30T14:03:30.440Z,999.89
2023-03-30T14:06:03.611Z,999.89
2023-03-30T14:08:36.227Z,999.89
2023-03-30T14:11:09.597Z,999.90
2023-03-30T14:13:43.577Z,999.94
2023-03-30T14:16:17.375Z,999.95
2023-03-30T14:18:50.495Z,1000.00
2023-03-30T14:21:23.345Z,1000.06
2023-03-30T14:23:56.389Z,1000.10
2023-03-30T14:26:29.516Z,1000.14
2023-03-30T14:29:02.239Z,1000.18
2023-03-30T14:31:35.622Z,1000.26
2023-03-30T14:34:09.508Z,1000.35
2023-03-30T14:36:42.630Z,1000.42
2023-03-30T14:39:16.394Z,1000.47
2023-03-30T14:41:49.506Z,1000.49
2023-03-30T14:44:22.429Z,1000.50
2023-03-30T14:46:55.500Z,1000.51
2023-03-30T14:49:28.423Z,1000.50
2023-03-30T14:52:01.489Z,1000.49
2023-03-30T14:54:34.433Z,1000.47
2023-03-30T14:57:07.617Z,1000.44
2023-03-30T14:59:40.518Z,1000.41
2023-03-30T15:02:13.511Z,1000.37
2023-03-30T15:04:46.518Z,1000.36
2023-03-30T15:07:19.179Z,1000.36
2023-03-30T15:09:52.595Z,1000.36
2023-03-30T15:12:25.701Z,1000.35
2023-03-30T15:14:59.472Z,1000.36
2023-03-30T15:17:32.507Z,1000.37
2023-03-30T15:20:05.405Z,1000.37
2023-03-30T15:22:38.533Z,1000.38
2023-03-30T15:25:11.576Z,1000.37
2023-03-30T15:27:44.603Z,1000.40
2023-03-30T15:30:17.484Z,1000.42
2023-03-30T15:32:50.511Z,1000.43
2023-03-30T15:35:23.456Z,1000.42
2023-03-30T15:37:56.199Z,1000.42
2023-03-30T15:40:29.487Z,1000.44
2023-03-30T15:43:03.533Z,1000.45
2023-03-30T15:48:26.831Z,1000.45
2023-03-30T15:51:00.558Z,1000.45
2023-03-30T15:53:33.507Z,1000.43
2023-03-30T15:56:06.504Z,1000.43
2023-03-30T15:58:39.324Z,1000.43
2023-03-30T16:01:12.621Z,1000.43
2023-03-30T16:03:45.377Z,1000.44
2023-03-30T16:06:18.475Z,1000.43
2023-03-30T16:08:51.377Z,1000.43
2023-03-30T16:11:24.501Z,1000.43
2023-03-30T16:13:57.615Z,1000.43
2023-03-30T16:16:30.552Z,1000.42
2023-03-30T16:19:03.793Z,1000.44
2023-03-30T16:21:37.556Z,1000.45
2023-03-30T16:24:10.686Z,1000.45
2023-03-30T16:26:43.735Z,1000.44
2023-03-30T16:29:17.553Z,1000.46
2023-03-30T16:31:50.717Z,1000.48
2023-03-30T16:34:23.630Z,1000.50
2023-03-30T16:36:59.598Z,1000.53
2023-03-30T16:39:32.301Z,1000.62
2023-03-30T16:42:05.726Z,1000.70
2023-03-30T16:44:38.292Z,1000.81
2023-03-30T16:47:11.754Z,1000.88
2023-03-30T16:49:45.626Z,1000.94
2023-03-30T16:52:18.624Z,1000.98
2023-03-30T16:54:51.442Z,1000.99
2023-03-30T16:57:24.755Z,1000.97
2023-03-30T16:59:57.746Z,1000.98
2023-03-30T17:02:31.385Z,1000.98
2023-03-30T17:05:04.552Z,1000.96
2023-03-30T17:07:37.556Z,1000.94
2023-03-30T17:10:10.498Z,1000.93
2023-03-30T17:12:43.516Z,1000.89
2023-03-30T17:15:16.349Z,1000.88
2023-03-30T17:17:49.423Z,1000.87
2023-03-30T17:20:22.364Z,1000.85
2023-03-30T17:22:55.706Z,1000.85
2023-03-30T17:25:42.827Z,1000.87
2023-03-30T17:28:16.558Z,1000.89
2023-03-30T17:30:49.611Z,1000.89
2023-03-30T17:33:22.353Z,1000.89
2023-03-30T17:35:59.410Z,1000.90
2023-03-30T17:38:32.497Z,1000.90
2023-03-30T17:41:05.672Z,1000.90
2023-03-30T17:43:38.449Z,1000.90
2023-03-30T17:46:11.748Z,1000.91
2023-03-30T17:48:44.403Z,1000.92
2023-03-30T17:51:17.409Z,1000.93
2023-03-30T17:53:50.607Z,1000.94
2023-03-30T17:56:23.449Z,1000.96
2023-03-30T17:58:56.604Z,1000.96
2023-03-30T18:01:29.624Z,1000.98
2023-03-30T18:04:02.595Z,1001.02
2023-03-30T18:06:35.458Z,1001.09
2023-03-30T18:09:08.582Z,1001.14
2023-03-30T18:11:41.780Z,1001.20
2023-03-30T18:14:14.569Z,1001.24
2023-03-30T18:16:50.228Z,1001.26
2023-03-30T18:19:20.763Z,1001.28
2023-03-30T18:21:53.809Z,1001.31
2023-03-30T18:24:26.805Z,1001.33
2023-03-30T18:26:59.923Z,1001.34
2023-03-30T18:29:33.579Z,1001.35
2023-03-30T18:32:06.529Z,1001.38
2023-03-30T18:34:39.470Z,1001.40
2023-03-30T18:37:12.666Z,1001.39
2023-03-30T18:39:45.449Z,1001.37
2023-03-30T18:42:18.488Z,1001.37
2023-03-30T18:44:51.731Z,1001.37
2023-03-30T18:47:24.526Z,1001.42
2023-03-30T18:49:57.830Z,1001.50
2023-03-30T18:52:30.630Z,1001.58
2023-03-30T18:55:03.563Z,1001.62
2023-03-30T18:57:36.739Z,1001.66
2023-03-30T19:00:09.839Z,1001.67
2023-03-30T19:02:42.557Z,1001.69
2023-03-30T19:05:15.764Z,1001.68
2023-03-30T19:07:48.857Z,1001.66
2023-03-30T19:10:21.814Z,1001.62
2023-03-30T19:12:54.659Z,1001.59
2023-03-30T19:15:29.657Z,1001.56
2023-03-30T19:18:02.907Z,1001.55
2023-03-30T19:20:35.726Z,1001.56
2023-03-30T19:23:08.697Z,1001.53
2023-03-30T19:25:41.532Z,1001.53
2023-03-30T19:28:14.748Z,1001.52
2023-03-30T19:30:47.619Z,1001.52
2023-03-30T19:33:34.829Z,1001.51
2023-03-30T19:36:07.808Z,1001.51
2023-03-30T19:38:40.579Z,1001.50
2023-03-30T19:41:13.854Z,1001.51
2023-03-30T19:43:46.533Z,1001.52
2023-03-30T19:46:19.606Z,1001.52
2023-03-30T19:48:52.884Z,1001.54
2023-03-30T19:51:25.860Z,1001.55
2023-03-30T19:53:58.932Z,1001.55
2023-03-30T19:56:32.180Z,1001.54
2023-03-30T19:59:05.745Z,1001.53
2023-03-30T20:01:39.028Z,1001.51
2023-03-30T20:04:11.727Z,1001.50
2023-03-30T20:06:44.868Z,1001.48
2023-03-30T20:09:17.903Z,1001.47
2023-03-30T20:11:50.665Z,1001.45
2023-03-30T20:14:23.959Z,1001.46
2023-03-30T20:16:57.126Z,1001.47
2023-03-30T20:19:30.741Z,1001.46
2023-03-30T20:22:03.960Z,1001.44
2023-03-30T20:24:36.997Z,1001.42
2023-03-30T20:27:09.623Z,1001.41
2023-03-30T20:29:42.880Z,1001.40
2023-03-30T20:32:15.649Z,1001.41
2023-03-30T20:34:48.907Z,1001.43
2023-03-30T20:37:21.916Z,1001.43
2023-03-30T20:39:54.943Z,1001.44
2023-03-30T20:42:27.776Z,1001.44
2023-03-30T20:45:01.204Z,1001.46
2023-03-30T20:47:34.146Z,1001.52
2023-03-30T20:50:10.129Z,1001.58
2023-03-30T20:52:43.688Z,1001.60
2023-03-30T20:55:16.949Z,1001.58
2023-03-30T20:57:49.953Z,1001.54
2023-03-30T21:00:22.683Z,1001.51
2023-03-30T21:02:55.885Z,1001.49
2023-03-30T21:05:29.049Z,1001.48
2023-03-30T21:08:15.892Z,1001.44
2023-03-30T21:10:48.730Z,1001.38
2023-03-30T21:13:22.086Z,1001.34
2023-03-30T21:15:55.181Z,1001.28
2023-03-30T21:18:28.854Z,1001.24
2023-03-30T21:21:15.663Z,1001.20
2023-03-30T21:23:48.726Z,1001.16
2023-03-30T21:26:21.799Z,1001.13
2023-03-30T21:28:54.890Z,1001.09
2023-03-30T21:31:28.441Z,1001.04
2023-03-30T21:34:02.033Z,1001.00
2023-03-30T21:36:35.047Z,1000.96
2023-03-30T21:39:08.108Z,1000.92
2023-03-30T21:41:40.899Z,1000.87
2023-03-30T21:44:14.077Z,1000.81
2023-03-30T21:46:47.062Z,1000.76
2023-03-30T21:49:34.149Z,1000.70
2023-03-30T21:52:07.291Z,1000.65
2023-03-30T21:54:41.125Z,1000.60
2023-03-30T21:57:14.063Z,1000.54
2023-03-30T21:59:47.016Z,1000.48
2023-03-30T22:02:20.124Z,1000.44
2023-03-30T22:04:53.072Z,1000.39
2023-03-30T22:07:30.014Z,1000.34
2023-03-30T22:10:03.200Z,1000.29
2023-03-30T22:12:37.115Z,1000.26
2023-03-30T22:15:10.169Z,1000.23
2023-03-30T22:17:42.932Z,1000.21
2023-03-30T22:20:16.074Z,1000.19
2023-03-30T22:22:49.051Z,1000.15
2023-03-30T22:25:24.838Z,1000.13
2023-03-30T22:27:58.150Z,1000.10
2023-03-30T22:30:44.757Z,1000.07
2023-03-30T22:33:18.182Z,1000.03
2023-03-30T22:35:51.158Z,1000.01
2023-03-30T22:38:24.154Z,999.98
2023-03-30T22:40:56.985Z,999.96
2023-03-30T22:43:30.144Z,999.95
2023-03-30T22:46:03.648Z,999.92
2023-03-30T22:48:35.947Z,999.89
2023-03-30T22:51:08.994Z,999.85
2023-03-30T22:53:42.103Z,999.83
2023-03-30T22:56:14.865Z,999.80
2023-03-30T22:58:48.277Z,999.76
2023-03-30T23:01:22.239Z,999.70
2023-03-30T23:03:54.966Z,999.65
2023-03-30T23:06:28.173Z,999.62
2023-03-30T23:09:01.110Z,999.56
2023-03-30T23:11:33.981Z,999.52
2023-03-30T23:14:07.204Z,999.48
2023-03-30T23:16:40.293Z,999.45
2023-03-30T23:19:13.341Z,999.39
2023-03-30T23:21:47.263Z,999.36
2023-03-30T23:24:20.194Z,999.32
2023-03-30T23:26:53.164Z,999.30
2023-03-30T23:29:26.117Z,999.27
2023-03-30T23:31:59.146Z,999.23
2023-03-30T23:34:32.166Z,999.18
2023-03-30T23:37:05.253Z,999.14
2023-03-30T23:39:38.058Z,999.08
2023-03-30T23:42:11.263Z,999.02
2023-03-30T23:44:44.426Z,998.99
2023-03-30T23:47:17.891Z,998.96
2023-03-30T23:49:50.912Z,998.92
2023-03-30T23:52:23.938Z,998.87
2023-03-30T23:54:56.930Z,998.83
2023-03-30T23:57:30.248Z,998.78
